Data for 06/20/2005

Time Sea-Level Adjusted Pressure Absolute Pressure Temperature Relative Humidity Dew Point   
(mb) (inHg) (mb) (inHg) (C) (F) (%) (C) (F)
00:05 1021 30.15 850 25.1 17.4 63.4 63 10.4 50.7
00:10 1021 30.15 850 25.1 17.4 63.3 63 10.4 50.8
00:15 1021 30.15 850 25.1 17.3 63.1 63 10.3 50.6
00:20 1021 30.15 850 25.1 17.3 63.1 64 10.4 50.7
00:25 1021 30.15 850 25.1 17.3 63.1 63 10.2 50.4
00:30 1021 30.15 850 25.1 17.2 63 64 10.4 50.8
00:35 1021 30.15 850 25.1 17.1 62.7 64 10.3 50.5
00:40 1021 30.15 850 25.1 17 62.6 64 10.2 50.3
00:45 1021 30.15 850 25.1 16.7 62.1 65 10.1 50.2
00:50 1021 30.15 850 25.1 16.6 61.9 65 10.2 50.3
00:55 1021 30.15 850 25.1 16.4 61.6 65 9.9 49.7
01:00 1021 30.15 850 25.1 16.4 61.6 64 9.8 49.6
01:05 1021 30.15 850 25.1 16.5 61.6 65 9.9 49.8
01:10 1021 30.15 850 25.1 16.5 61.6 65 10 50
01:15 1021 30.15 850 25.1 16.3 61.3 67 10.2 50.3
01:20 1021 30.15 850 25.1 16.3 61.3 67 10.1 50.2
01:25 1021 30.15 850 25.1 16.1 61 67 10.2 50.3
01:30 1021 30.15 850 25.1 15.7 60.2 58 7.5 45.4
01:35 1021 30.15 850 25.1 14.4 57.9 61 6.9 44.5
01:40 1021 30.15 850 25.1 14.1 57.4 58 5.9 42.6
01:45 1021 30.15 850 25.1 14 57.1 57 5.7 42.2
01:50 1021 30.15 851 25.13 13.6 56.4 59 5.7 42.2
01:55 1021 30.15 851 25.13 13.4 56.1 59 5.6 42.1
02:00 1021 30.15 851 25.13 13.6 56.4 58 5.5 41.9
02:05 1021 30.15 851 25.13 13.8 56.9 56 5.1 41.3
02:10 1022 30.18 851 25.13 14.9 58.7 55 6 42.8
02:15 1022 30.18 851 25.13 14.6 58.2 56 5.9 42.5
02:20 1022 30.18 851 25.13 14.2 57.5 56 5.6 42.2
02:25 1022 30.18 851 25.13 14 57.2 57 5.7 42.3
02:30 1022 30.18 851 25.13 14.1 57.3 60 6.5 43.7
02:35 1022 30.18 851 25.13 14.1 57.4 60 6.4 43.6
02:40 1022 30.18 851 25.13 13.9 57 64 7.3 45.1
02:45 1022 30.18 851 25.13 13.9 57 59 6.1 42.9
02:50 1022 30.18 851 25.13 13.2 55.8 59 5.3 41.6
02:55 1022 30.18 851 25.13 13.3 56 58 5.4 41.7
03:00 1022 30.18 851 25.13 13.2 55.7 59 5.3 41.6
03:05 1022 30.18 851 25.13 13.2 55.7 60 5.8 42.4
03:10 1022 30.18 851 25.13 12.9 55.3 61 5.7 42.3
03:15 1022 30.18 851 25.13 12.7 54.9 63 5.9 42.6
03:20 1022 30.18 851 25.13 12.6 54.6 64 6.1 43
03:25 1022 30.18 851 25.13 12.5 54.4 64 5.8 42.5
03:30 1022 30.18 851 25.13 12.8 55 61 5.5 42
03:35 1022 30.18 851 25.13 12.9 55.1 63 6 42.7
03:40 1022 30.18 851 25.13 12.7 54.8 64 6 42.8
03:45 1022 30.18 851 25.13 12.3 54.1 64 5.7 42.3
03:50 1022 30.18 851 25.13 12.2 54 65 5.8 42.5
03:55 1022 30.18 851 25.13 12.3 54.1 63 5.5 42
04:00 1022 30.18 851 25.13 12.2 53.9 69 6.7 44
04:05 1021 30.15 851 25.13 11.7 53.1 70 6.6 43.8
04:10 1022 30.18 851 25.13 11.4 52.5 69 6.1 42.9
04:15 1022 30.18 851 25.13 11.1 52 73 6.4 43.6
04:20 1022 30.18 851 25.13 10.8 51.4 74 6.3 43.3
04:25 1022 30.18 851 25.13 10.7 51.3 72 5.8 42.5
04:30 1022 30.18 851 25.13 11.1 51.9 68 5.5 41.9
04:35 1022 30.18 851 25.13 11.8 53.2 67 5.9 42.6
04:40 1022 30.18 851 25.13 11.9 53.3 66 5.8 42.4
04:45 1022 30.18 851 25.13 12 53.7 68 6.3 43.4
04:50 1022 30.18 851 25.13 11.8 53.3 68 6.1 43
04:55 1022 30.18 851 25.13 11.8 53.3 70 6.5 43.7
05:00 1022 30.18 851 25.13 12.1 53.7 65 5.8 42.5
05:05 1022 30.18 851 25.13 11.9 53.3 67 6 42.9
05:10 1022 30.18 851 25.13 11.5 52.8 68 5.9 42.6
05:15 1022 30.18 851 25.13 11.4 52.4 69 5.9 42.7
05:20 1022 30.18 851 25.13 11.2 52.1 70 5.9 42.6
05:25 1022 30.18 851 25.13 11.2 52.2 70 5.9 42.6
05:30 1022 30.18 851 25.13 11.1 51.9 70 5.8 42.5
05:35 1022 30.18 851 25.13 11 51.9 70 5.8 42.4
05:40 1022 30.18 851 25.13 11.1 52 69 5.6 42.1
05:45 1022 30.18 851 25.13 10.9 51.7 71 5.8 42.5
05:50 1022 30.18 851 25.13 10.8 51.4 73 6.2 43.1
05:55 1022 30.18 851 25.13 10.7 51.3 72 5.9 42.6
06:00 1022 30.18 851 25.13 10.9 51.5 68 5.2 41.3
06:05 1022 30.18 851 25.13 11.7 53 66 5.6 42.1
06:10 1022 30.18 851 25.13 11.8 53.3 65 5.5 42
06:15 1022 30.18 851 25.13 12 53.7 66 5.9 42.7
06:20 1022 30.18 851 25.13 11.7 53.1 68 6.1 43
06:25 1022 30.18 851 25.13 12.2 54 66 6 42.8
06:30 1022 30.18 851 25.13 12.7 54.8 64 6.1 43
06:35 1022 30.18 851 25.13 12.2 54 67 6.3 43.3
06:40 1022 30.18 852 25.16 12 53.5 67 6.1 43.1
06:45 1022 30.18 852 25.16 12.2 54 68 6.5 43.7
06:50 1022 30.18 852 25.16 12.4 54.4 66 6.2 43.2
06:55 1022 30.18 852 25.16 12.7 54.8 65 6.3 43.3
07:00 1022 30.18 852 25.16 12.9 55.2 64 6.2 43.2
07:05 1022 30.18 852 25.16 13.3 56 62 6.3 43.3
07:10 1022 30.18 852 25.16 13.6 56.4 62 6.4 43.5
07:15 1022 30.18 852 25.16 14.2 57.5 59 6.3 43.4
07:20 1022 30.18 852 25.16 14.4 58 60 6.8 44.3
07:25 1022 30.18 852 25.16 15.1 59.1 53 5.6 42.1
07:30 1022 30.18 852 25.16 15.2 59.4 56 6.7 44.1
07:35 1023 30.21 852 25.16 15.4 59.7 55 6.4 43.4
07:40 1023 30.21 852 25.16 16.1 60.9 55 7.1 44.7
07:45 1023 30.21 852 25.16 16.6 61.8 51 6.5 43.7
07:50 1023 30.21 852 25.16 17.1 62.8 47 5.9 42.7
07:55 1023 30.21 852 25.16 17.5 63.4 49 6.7 44
08:00 1023 30.21 852 25.16 16.9 62.5 56 8.2 46.7
08:05 1023 30.21 852 25.16 16.1 61 60 8.4 47.2
08:10 1023 30.21 852 25.16 16.1 61 60 8.4 47.1
08:15 1023 30.21 852 25.16 16.5 61.7 54 7.4 45.3
08:20 1023 30.21 852 25.16 16.8 62.2 53 7.3 45.1
08:25 1023 30.21 852 25.16 17 62.5 51 6.8 44.3
08:30 1023 30.21 852 25.16 17.4 63.2 51 7.2 44.9
08:35 1023 30.21 852 25.16 17.5 63.5 50 7.1 44.9
08:40 1023 30.21 852 25.16 18 64.5 49 7.3 45.2
08:45 1023 30.21 852 25.16 18.1 64.6 50 7.8 46
08:50 1023 30.21 852 25.16 18.2 64.8 50 7.8 46.1
08:55 1023 30.21 852 25.16 18.6 65.6 47 7.3 45.2
09:00 1023 30.21 852 25.16 18.9 66 48 7.7 45.9
09:05 1023 30.21 852 25.16 18.6 65.5 49 7.7 45.9
09:10 1023 30.21 852 25.16 19 66.2 48 7.9 46.3
09:15 1023 30.21 852 25.16 18.6 65.5 50 8.1 46.6
09:20 1023 30.21 852 25.16 17.9 64.3 50 7.4 45.4
09:25 1023 30.21 852 25.16 17.9 64.3 51 7.7 45.9
09:30 1023 30.21 852 25.16 18 64.4 50 7.6 45.7
09:35 1023 30.21 852 25.16 18.4 65.1 49 7.7 45.9
09:40 1023 30.21 852 25.16 19 66.2 48 7.9 46.2
09:45 1023 30.21 852 25.16 19.5 67 47 8 46.4
09:50 1023 30.21 852 25.16 19.4 66.8 48 8.1 46.7
09:55 1023 30.21 852 25.16 19.7 67.5 46 8 46.4
10:00 1022 30.18 852 25.16 19.5 67.1 48 8.5 47.2
10:05 1022 30.18 852 25.16 19.9 67.9 47 8.3 47
10:10 1022 30.18 852 25.16 20.4 68.8 45 8.4 47
10:15 1022 30.18 851 25.13 20.3 68.5 46 8.5 47.4
10:20 1022 30.18 851 25.13 20.4 68.6 46 8.5 47.3
10:25 1022 30.18 851 25.13 20.8 69.4 47 9.2 48.6
10:30 1022 30.18 851 25.13 21.1 69.9 46 9 48.3
10:35 1022 30.18 851 25.13 21.4 70.5 45 9.3 48.7
10:40 1022 30.18 851 25.13 21.5 70.6 46 9.6 49.4
10:45 1022 30.18 851 25.13 20.9 69.7 46 9.1 48.4
10:50 1022 30.18 851 25.13 20.9 69.6 49 10 49.9
10:55 1022 30.18 851 25.13 20.5 69 49 9.7 49.5
11:00 1022 30.18 851 25.13 21.2 70.2 47 9.5 49.2
11:05 1022 30.18 851 25.13 21.6 70.9 48 10.2 50.3
11:10 1022 30.18 851 25.13 21.1 70 49 10.2 50.4
11:15 1022 30.18 851 25.13 21.5 70.6 49 10.4 50.7
11:20 1022 30.18 851 25.13 21.5 70.7 50 10.7 51.3
11:25 1022 30.18 851 25.13 21.6 70.9 48 10.1 50.2
11:30 1022 30.18 851 25.13 21.9 71.4 50 11.1 52
11:35 1022 30.18 851 25.13 21 69.7 50 10.3 50.6
11:40 1022 30.18 851 25.13 22.1 71.8 48 10.7 51.2
11:45 1022 30.18 851 25.13 22.7 72.8 45 10.3 50.6
11:50 1022 30.18 851 25.13 22.8 73 48 11.3 52.3
11:55 1022 30.18 851 25.13 23.2 73.8 44 10.6 51.1
12:00 1022 30.18 851 25.13 23.7 74.7 43 10.6 51.1
12:05 1022 30.18 851 25.13 23.9 75 43 10.8 51.5
12:10 1022 30.18 851 25.13 23.7 74.6 44 11 51.8
12:15 1022 30.18 851 25.13 23.9 75.1 45 11.4 52.6
12:20 1022 30.18 851 25.13 23.7 74.7 45 11.3 52.4
12:25 1022 30.18 851 25.13 23.8 74.9 44 11.2 52.1
12:30 1022 30.18 851 25.13 23.7 74.7 47 11.9 53.4
12:35 1022 30.18 851 25.13 23.4 74.1 46 11.4 52.6
12:40 1021 30.15 851 25.13 24.2 75.6 44 11.3 52.3
12:45 1021 30.15 851 25.13 24.6 76.2 44 11.9 53.3
12:50 1021 30.15 851 25.13 24.8 76.7 43 11.7 53.1
12:55 1021 30.15 851 25.13 24.6 76.3 44 11.9 53.3
13:00 1021 30.15 851 25.13 24.9 76.8 43 11.5 52.7
13:05 1021 30.15 851 25.13 25 76.9 41 11.1 52.1
13:10 1021 30.15 851 25.13 25.7 78.2 41 11.7 53.1
13:15 1021 30.15 851 25.13 25.7 78.3 42 12.1 53.8
13:20 1021 30.15 850 25.1 26 78.7 40 11.6 52.8
13:25 1021 30.15 850 25.1 25.5 77.9 43 12.2 54
13:30 1021 30.15 850 25.1 24.7 76.4 44 11.7 53.1
13:35 1021 30.15 850 25.1 25.5 77.9 41 11.5 52.6
13:40 1021 30.15 850 25.1 26.2 79.2 40 11.8 53.3
13:45 1021 30.15 850 25.1 26.7 80.1 38 11.5 52.7
13:50 1021 30.15 850 25.1 26.5 79.7 41 12.2 54
13:55 1021 30.15 850 25.1 27.1 80.8 38 11.9 53.5
14:00 1021 30.15 850 25.1 26.5 79.6 42 12.8 55
14:05 1021 30.15 850 25.1 26.1 78.9 40 11.8 53.2
14:10 1021 30.15 850 25.1 26.5 79.7 40 12.1 53.7
14:15 1021 30.15 850 25.1 26.4 79.6 40 12 53.7
14:20 1021 30.15 850 25.1 26.6 79.9 39 11.8 53.2
14:25 1021 30.15 850 25.1 27.5 81.5 39 12.4 54.3
14:30 1021 30.15 850 25.1 28.2 82.7 35 11.5 52.6
14:35 1021 30.15 850 25.1 28.6 83.5 35 11.8 53.3
14:40 1021 30.15 850 25.1 28.6 83.4 36 12.5 54.5
14:45 1021 30.15 850 25.1 28.6 83.5 35 11.9 53.4
14:50 1021 30.15 850 25.1 29 84.3 34 11.7 53.1
14:55 1021 30.15 850 25.1 28.7 83.6 34 11.6 52.8
15:00 1021 30.15 850 25.1 28.5 83.2 34 11.5 52.7
15:05 1021 30.15 850 25.1 28 82.4 32 10.2 50.4
15:10 1021 30.15 850 25.1 28.4 83.2 34 11.3 52.3
15:15 1021 30.15 850 25.1 29.3 84.8 31 10.7 51.2
15:20 1021 30.15 850 25.1 28.7 83.7 29 9.4 48.9
15:25 1021 30.15 850 25.1 28.4 83 31 10.1 50.1
15:30 1020 30.12 850 25.1 29.3 84.7 29 9.7 49.4
15:35 1020 30.12 850 25.1 30.1 86.1 29 10.2 50.4
15:40 1020 30.12 850 25.1 30.3 86.5 27 9.4 48.9
15:45 1020 30.12 849 25.07 30.9 87.6 24 8.6 47.5
15:50 1020 30.12 849 25.07 31 87.8 21 6.4 43.6
15:55 1020 30.12 849 25.07 31.3 88.3 21 6.5 43.6
16:00 1020 30.12 849 25.07 31.3 88.4 20 6.3 43.4
16:05 1020 30.12 849 25.07 31.5 88.8 19 5.6 42
16:10 1020 30.12 849 25.07 31.4 88.6 19 5.3 41.6
16:15 1020 30.12 849 25.07 31.1 88 20 5.7 42.2
16:20 1020 30.12 849 25.07 30.7 87.2 22 6.6 43.8
16:25 1020 30.12 849 25.07 30.9 87.6 19 5.3 41.5
16:30 1020 30.12 849 25.07 30.6 87 19 5 41
16:35 1020 30.12 849 25.07 30.5 86.9 19 4.6 40.2
16:40 1020 30.12 849 25.07 30.8 87.5 20 5.6 42.1
16:45 1020 30.12 849 25.07 31 87.8 20 5.5 42
16:50 1020 30.12 849 25.07 31.3 88.4 17 4 39.2
16:55 1020 30.12 849 25.07 31.5 88.6 17 3.9 39
17:00 1020 30.12 849 25.07 31.5 88.7 18 5 41.1
17:05 1020 30.12 849 25.07 31.6 88.9 18 4.5 40.2
17:10 1020 30.12 849 25.07 31.6 88.8 17 4.2 39.5
17:15 1020 30.12 849 25.07 31.7 89.1 16 2.9 37.2
17:20 1020 30.12 849 25.07 31.7 89.1 16 3.4 38.2
17:25 1020 30.12 849 25.07 31.4 88.5 17 3.8 38.8
17:30 1020 30.12 849 25.07 31.5 88.6 18 4.4 39.9
17:35 1020 30.12 849 25.07 31.5 88.8 18 4.5 40.1
17:40 1020 30.12 849 25.07 31.1 88 18 4.7 40.5
17:45 1020 30.12 849 25.07 31.3 88.3 18 4.3 39.7
17:50 1020 30.12 849 25.07 31.5 88.7 16 2.8 37.1
17:55 1020 30.12 849 25.07 31.2 88.1 17 3.7 38.7
18:00 1020 30.12 849 25.07 30.7 87.2 17 3.3 38
18:05 1020 30.12 849 25.07 30.1 86.2 18 3.7 38.6
18:10 1020 30.12 849 25.07 29.4 84.9 19 3.5 38.3
18:15 1020 30.12 849 25.07 29.2 84.5 18 2.9 37.3
18:20 1020 30.12 849 25.07 29.9 85.7 17 2.8 37
18:25 1020 30.12 849 25.07 29.7 85.5 19 4.2 39.6
18:30 1020 30.12 849 25.07 30 86 17 3 37.4
18:35 1020 30.12 849 25.07 30.9 87.7 17 3 37.5
18:40 1020 30.12 849 25.07 30.9 87.7 16 2.3 36.1
18:45 1020 30.12 849 25.07 30.3 86.6 16 2 35.6
18:50 1020 30.12 849 25.07 30.2 86.3 17 2.9 37.2
18:55 1020 30.12 849 25.07 30 86 17 2.9 37.3
19:00 1020 30.12 849 25.07 29.9 85.9 17 2.7 36.9
19:05 1020 30.12 849 25.07 30.2 86.3 18 3.6 38.6
19:10 1020 30.12 849 25.07 30.6 87.1 16 2.5 36.5
19:15 1020 30.12 849 25.07 30.9 87.5 15 1.4 34.5
19:20 1020 30.12 849 25.07 30.3 86.6 16 1.8 35.3
19:25 1020 30.12 849 25.07 30.3 86.6 25 8.3 46.9
19:30 1020 30.12 849 25.07 29.2 84.6 27 8.5 47.4
19:35 1020 30.12 849 25.07 28.7 83.6 15 -0.6 30.9
19:40 1020 30.12 849 25.07 29.7 85.5 19 3.8 38.8
19:45 1020 30.12 850 25.1 30.4 86.6 20 5.1 41.2
19:50 1020 30.12 850 25.1 30.3 86.5 22 6.8 44.2
19:55 1020 30.12 850 25.1 29 84.1 23 6 42.9
20:00 1020 30.12 850 25.1 28.4 83.1 22 4.8 40.6
20:05 1020 30.12 850 25.1 28.1 82.5 19 2.9 37.2
20:10 1020 30.12 850 25.1 27.6 81.6 21 3.9 39
20:15 1020 30.12 850 25.1 26.6 79.9 22 3.6 38.5
20:20 1020 30.12 850 25.1 26.5 79.7 21 2.5 36.4
20:25 1020 30.12 850 25.1 26.3 79.3 22 3 37.5
20:30 1020 30.12 850 25.1 26.1 78.9 20 1.8 35.2
20:35 1020 30.12 850 25.1 25.9 78.6 20 1.6 34.9
20:40 1020 30.12 850 25.1 25.8 78.5 16 -1.9 28.6
20:45 1020 30.12 850 25.1 26.5 79.7 17 -0.4 31.3
20:50 1020 30.12 850 25.1 26.4 79.4 16 -1.4 29.5
20:55 1021 30.15 850 25.1 26.2 79.1 18 0.4 32.8
21:00 1021 30.15 850 25.1 25.9 78.6 17 -1 30.1
21:05 1021 30.15 850 25.1 26 78.8 16 -1.6 29.1
21:10 1021 30.15 850 25.1 25.7 78.3 17 -1 30.2
21:15 1021 30.15 850 25.1 25.5 77.9 16 -1.8 28.7
21:20 1021 30.15 850 25.1 25.4 77.7 17 -1.6 29.1
21:25 1021 30.15 850 25.1 25.3 77.6 16 -1.9 28.5
21:30 1021 30.15 850 25.1 24.9 76.9 22 1.9 35.5
21:35 1021 30.15 850 25.1 24.4 76 20 -0.1 31.8
21:40 1021 30.15 850 25.1 23.9 74.9 22 1.1 33.9
21:45 1021 30.15 850 25.1 23.1 73.5 24 1.5 34.7
21:50 1021 30.15 850 25.1 22.7 72.9 27 2.9 37.1
21:55 1021 30.15 850 25.1 22.5 72.6 27 2.8 37.1
22:00 1021 30.15 850 25.1 21.8 71.2 27 2.3 36.1
22:05 1021 30.15 851 25.13 21.7 71 25 1 33.8
22:10 1021 30.15 851 25.13 21.6 70.9 26 1.3 34.3
22:15 1021 30.15 851 25.13 21.5 70.7 25 1 33.8
22:20 1021 30.15 851 25.13 21.2 70.2 26 1.3 34.3
22:25 1022 30.18 851 25.13 21.8 71.3 23 -0.2 31.6
22:30 1022 30.18 851 25.13 22.4 72.4 24 0.9 33.6
22:35 1022 30.18 851 25.13 22.6 72.6 25 1.7 35.1
22:40 1022 30.18 851 25.13 22.7 72.8 24 1.2 34.2
22:45 1022 30.18 851 25.13 22.7 72.9 24 1.1 34
22:50 1022 30.18 851 25.13 22.8 73.1 23 1 33.9
22:55 1022 30.18 851 25.13 22.6 72.6 24 1.4 34.5
23:00 1022 30.18 851 25.13 22.5 72.4 25 1.5 34.6
23:05 1022 30.18 851 25.13 22.2 72 25 1.5 34.7
23:10 1022 30.18 851 25.13 22.3 72.1 24 1.1 34.1
23:15 1022 30.18 851 25.13 22.4 72.3 25 1.5 34.8
23:20 1022 30.18 851 25.13 22 71.6 25 1.3 34.4
23:25 1022 30.18 851 25.13 21.7 71 26 1.7 35.1
23:30 1022 30.18 851 25.13 21.5 70.7 27 1.8 35.2
23:35 1022 30.18 851 25.13 21.5 70.7 24 0 32
23:40 1022 30.18 851 25.13 21.7 71.1 34 5.3 41.6
23:45 1022 30.18 851 25.13 20.8 69.4 27 1.5 34.7
23:50 1022 30.18 851 25.13 21.3 70.3 32 4 39.3
23:55 1022 30.18 851 25.13 20.7 69.3 27 1.1 34
24:00 1022 30.18 851 25.13 20.8 69.5 27 1.2 34.2